sensor_id;sensor_type;location;lat;lon;timestamp;P1;durP1;ratioP1;P2;durP2;ratioP2
67979;SDS011;54760;47.490;19.030;2023-05-07T00:01:05;4.97;;;4.22;;
67979;SDS011;54760;47.490;19.030;2023-05-07T00:03:31;4.57;;;3.72;;
67979;SDS011;54760;47.490;19.030;2023-05-07T00:05:57;5.72;;;3.60;;
67979;SDS011;54760;47.490;19.030;2023-05-07T00:08:23;5.70;;;3.60;;
67979;SDS011;54760;47.490;19.030;2023-05-07T00:10:48;8.00;;;3.90;;
67979;SDS011;54760;47.490;19.030;2023-05-07T00:13:14;4.18;;;3.25;;
67979;SDS011;54760;47.490;19.030;2023-05-07T00:15:39;3.75;;;2.90;;
67979;SDS011;54760;47.490;19.030;2023-05-07T00:18:05;3.80;;;3.33;;
67979;SDS011;54760;47.490;19.030;2023-05-07T00:20:30;4.20;;;3.35;;
67979;SDS011;54760;47.490;19.030;2023-05-07T00:22:55;3.83;;;3.45;;
67979;SDS011;54760;47.490;19.030;2023-05-07T00:25:21;4.20;;;3.15;;
67979;SDS011;54760;47.490;19.030;2023-05-07T00:27:46;4.43;;;3.00;;
67979;SDS011;54760;47.490;19.030;2023-05-07T00:30:12;4.53;;;3.00;;
67979;SDS011;54760;47.490;19.030;2023-05-07T00:32:37;3.78;;;3.22;;
67979;SDS011;54760;47.490;19.030;2023-05-07T00:35:03;5.40;;;3.30;;
67979;SDS011;54760;47.490;19.030;2023-05-07T00:37:30;10.02;;;3.30;;
67979;SDS011;54760;47.490;19.030;2023-05-07T00:39:55;4.22;;;3.10;;
67979;SDS011;54760;47.490;19.030;2023-05-07T00:42:21;4.28;;;3.50;;
67979;SDS011;54760;47.490;19.030;2023-05-07T00:44:46;5.18;;;3.20;;
67979;SDS011;54760;47.490;19.030;2023-05-07T00:47:12;3.90;;;3.33;;
67979;SDS011;54760;47.490;19.030;2023-05-07T00:49:39;7.03;;;3.70;;
67979;SDS011;54760;47.490;19.030;2023-05-07T00:52:07;4.68;;;3.55;;
67979;SDS011;54760;47.490;19.030;2023-05-07T00:54:33;3.83;;;3.42;;
67979;SDS011;54760;47.490;19.030;2023-05-07T00:56:59;3.60;;;3.30;;
67979;SDS011;54760;47.490;19.030;2023-05-07T00:59:27;4.25;;;3.17;;
67979;SDS011;54760;47.490;19.030;2023-05-07T01:01:52;5.53;;;2.87;;
67979;SDS011;54760;47.490;19.030;2023-05-07T01:04:18;4.72;;;3.00;;
67979;SDS011;54760;47.490;19.030;2023-05-07T01:06:44;4.07;;;3.25;;
67979;SDS011;54760;47.490;19.030;2023-05-07T01:09:10;3.22;;;2.90;;
67979;SDS011;54760;47.490;19.030;2023-05-07T01:11:36;4.32;;;2.80;;
67979;SDS011;54760;47.490;19.030;2023-05-07T01:14:01;3.15;;;2.85;;
67979;SDS011;54760;47.490;19.030;2023-05-07T01:16:27;3.47;;;3.17;;
67979;SDS011;54760;47.490;19.030;2023-05-07T01:18:53;4.43;;;3.12;;
67979;SDS011;54760;47.490;19.030;2023-05-07T01:21:18;3.97;;;3.12;;
67979;SDS011;54760;47.490;19.030;2023-05-07T01:23:51;3.70;;;3.20;;
67979;SDS011;54760;47.490;19.030;2023-05-07T01:26:18;3.67;;;3.00;;
67979;SDS011;54760;47.490;19.030;2023-05-07T01:28:44;5.22;;;2.97;;
67979;SDS011;54760;47.490;19.030;2023-05-07T01:31:10;3.90;;;3.15;;
67979;SDS011;54760;47.490;19.030;2023-05-07T01:33:39;3.60;;;2.95;;
67979;SDS011;54760;47.490;19.030;2023-05-07T01:36:06;4.95;;;3.10;;
67979;SDS011;54760;47.490;19.030;2023-05-07T01:38:33;3.33;;;2.70;;
67979;SDS011;54760;47.490;19.030;2023-05-07T01:41:01;4.03;;;3.03;;
67979;SDS011;54760;47.490;19.030;2023-05-07T01:43:28;3.78;;;2.80;;
67979;SDS011;54760;47.490;19.030;2023-05-07T01:45:54;4.50;;;2.78;;
67979;SDS011;54760;47.490;19.030;2023-05-07T01:48:20;3.12;;;2.70;;
67979;SDS011;54760;47.490;19.030;2023-05-07T01:50:46;3.37;;;3.03;;
67979;SDS011;54760;47.490;19.030;2023-05-07T01:53:12;6.30;;;3.00;;
67979;SDS011;54760;47.490;19.030;2023-05-07T01:55:38;6.15;;;3.17;;
67979;SDS011;54760;47.490;19.030;2023-05-07T01:58:03;4.53;;;2.75;;
67979;SDS011;54760;47.490;19.030;2023-05-07T02:00:29;3.85;;;3.05;;
67979;SDS011;54760;47.490;19.030;2023-05-07T02:02:55;3.15;;;2.80;;
67979;SDS011;54760;47.490;19.030;2023-05-07T02:05:21;3.35;;;2.60;;
67979;SDS011;54760;47.490;19.030;2023-05-07T02:07:46;3.40;;;2.80;;
67979;SDS011;54760;47.490;19.030;2023-05-07T02:10:12;4.55;;;3.12;;
67979;SDS011;54760;47.490;19.030;2023-05-07T02:12:37;3.75;;;2.90;;
67979;SDS011;54760;47.490;19.030;2023-05-07T02:15:03;3.00;;;2.70;;
67979;SDS011;54760;47.490;19.030;2023-05-07T02:17:28;5.35;;;2.80;;
67979;SDS011;54760;47.490;19.030;2023-05-07T02:19:56;4.37;;;2.90;;
67979;SDS011;54760;47.490;19.030;2023-05-07T02:22:22;3.33;;;3.03;;
67979;SDS011;54760;47.490;19.030;2023-05-07T02:24:47;4.18;;;3.20;;
67979;SDS011;54760;47.490;19.030;2023-05-07T02:27:14;3.37;;;3.08;;
67979;SDS011;54760;47.490;19.030;2023-05-07T02:29:39;4.10;;;2.42;;
67979;SDS011;54760;47.490;19.030;2023-05-07T02:32:05;3.50;;;2.85;;
67979;SDS011;54760;47.490;19.030;2023-05-07T02:34:30;5.35;;;3.25;;
67979;SDS011;54760;47.490;19.030;2023-05-07T02:36:55;4.72;;;3.83;;
67979;SDS011;54760;47.490;19.030;2023-05-07T02:39:21;5.15;;;2.72;;
67979;SDS011;54760;47.490;19.030;2023-05-07T02:41:47;4.43;;;2.97;;
67979;SDS011;54760;47.490;19.030;2023-05-07T02:44:12;3.60;;;2.97;;
67979;SDS011;54760;47.490;19.030;2023-05-07T02:46:37;5.00;;;3.00;;
67979;SDS011;54760;47.490;19.030;2023-05-07T02:49:03;3.20;;;2.90;;
67979;SDS011;54760;47.490;19.030;2023-05-07T02:51:29;3.25;;;2.70;;
67979;SDS011;54760;47.490;19.030;2023-05-07T02:53:55;3.83;;;3.10;;
67979;SDS011;54760;47.490;19.030;2023-05-07T02:56:21;3.25;;;2.95;;
67979;SDS011;54760;47.490;19.030;2023-05-07T02:58:46;6.30;;;2.80;;
67979;SDS011;54760;47.490;19.030;2023-05-07T03:01:12;4.00;;;3.00;;
67979;SDS011;54760;47.490;19.030;2023-05-07T03:03:38;5.00;;;3.05;;
67979;SDS011;54760;47.490;19.030;2023-05-07T03:06:05;5.47;;;2.90;;
67979;SDS011;54760;47.490;19.030;2023-05-07T03:08:31;2.97;;;2.60;;
67979;SDS011;54760;47.490;19.030;2023-05-07T03:10:57;3.75;;;2.80;;
67979;SDS011;54760;47.490;19.030;2023-05-07T03:13:23;4.82;;;3.10;;
67979;SDS011;54760;47.490;19.030;2023-05-07T03:15:48;4.37;;;2.90;;
67979;SDS011;54760;47.490;19.030;2023-05-07T03:18:14;3.47;;;2.80;;
67979;SDS011;54760;47.490;19.030;2023-05-07T03:20:39;6.22;;;2.90;;
67979;SDS011;54760;47.490;19.030;2023-05-07T03:23:05;3.65;;;2.47;;
67979;SDS011;54760;47.490;19.030;2023-05-07T03:25:31;4.37;;;2.70;;
67979;SDS011;54760;47.490;19.030;2023-05-07T03:27:57;3.12;;;2.58;;
67979;SDS011;54760;47.490;19.030;2023-05-07T03:30:23;3.72;;;2.83;;
67979;SDS011;54760;47.490;19.030;2023-05-07T03:32:48;3.62;;;2.80;;
67979;SDS011;54760;47.490;19.030;2023-05-07T03:35:14;4.50;;;2.80;;
67979;SDS011;54760;47.490;19.030;2023-05-07T03:37:39;3.00;;;2.40;;
67979;SDS011;54760;47.490;19.030;2023-05-07T03:40:05;3.03;;;2.53;;
67979;SDS011;54760;47.490;19.030;2023-05-07T03:42:31;2.85;;;2.50;;
67979;SDS011;54760;47.490;19.030;2023-05-07T03:44:57;3.75;;;2.67;;
67979;SDS011;54760;47.490;19.030;2023-05-07T03:47:22;3.85;;;2.87;;
67979;SDS011;54760;47.490;19.030;2023-05-07T03:49:47;3.65;;;2.58;;
67979;SDS011;54760;47.490;19.030;2023-05-07T03:52:14;3.40;;;2.70;;
67979;SDS011;54760;47.490;19.030;2023-05-07T03:54:39;4.55;;;2.45;;
67979;SDS011;54760;47.490;19.030;2023-05-07T03:57:05;3.25;;;2.62;;
67979;SDS011;54760;47.490;19.030;2023-05-07T03:59:30;5.65;;;3.08;;
67979;SDS011;54760;47.490;19.030;2023-05-07T04:01:56;3.10;;;2.60;;
67979;SDS011;54760;47.490;19.030;2023-05-07T04:04:21;3.80;;;2.42;;
67979;SDS011;54760;47.490;19.030;2023-05-07T04:06:46;3.58;;;2.70;;
67979;SDS011;54760;47.490;19.030;2023-05-07T04:09:12;6.07;;;2.80;;
67979;SDS011;54760;47.490;19.030;2023-05-07T04:11:37;5.12;;;2.90;;
67979;SDS011;54760;47.490;19.030;2023-05-07T04:14:05;3.37;;;2.90;;
67979;SDS011;54760;47.490;19.030;2023-05-07T04:16:30;4.90;;;3.03;;
67979;SDS011;54760;47.490;19.030;2023-05-07T04:18:56;6.30;;;3.22;;
67979;SDS011;54760;47.490;19.030;2023-05-07T04:21:21;4.22;;;2.65;;
67979;SDS011;54760;47.490;19.030;2023-05-07T04:23:47;4.62;;;2.72;;
67979;SDS011;54760;47.490;19.030;2023-05-07T04:26:13;3.97;;;2.85;;
67979;SDS011;54760;47.490;19.030;2023-05-07T04:28:39;3.90;;;2.90;;
67979;SDS011;54760;47.490;19.030;2023-05-07T04:31:05;4.95;;;2.85;;
67979;SDS011;54760;47.490;19.030;2023-05-07T04:33:31;4.07;;;2.75;;
67979;SDS011;54760;47.490;19.030;2023-05-07T04:35:58;3.45;;;2.75;;
67979;SDS011;54760;47.490;19.030;2023-05-07T04:38:28;4.82;;;3.10;;
67979;SDS011;54760;47.490;19.030;2023-05-07T04:40:55;3.30;;;3.00;;
67979;SDS011;54760;47.490;19.030;2023-05-07T04:43:21;5.75;;;3.25;;
67979;SDS011;54760;47.490;19.030;2023-05-07T04:45:46;8.27;;;3.35;;
67979;SDS011;54760;47.490;19.030;2023-05-07T04:48:14;5.37;;;3.30;;
67979;SDS011;54760;47.490;19.030;2023-05-07T04:50:40;4.90;;;3.10;;
67979;SDS011;54760;47.490;19.030;2023-05-07T04:53:05;3.47;;;3.15;;
67979;SDS011;54760;47.490;19.030;2023-05-07T04:55:31;4.15;;;3.20;;
67979;SDS011;54760;47.490;19.030;2023-05-07T04:57:56;4.95;;;3.60;;
67979;SDS011;54760;47.490;19.030;2023-05-07T05:00:21;4.82;;;3.42;;
67979;SDS011;54760;47.490;19.030;2023-05-07T05:02:48;4.00;;;3.28;;
67979;SDS011;54760;47.490;19.030;2023-05-07T05:05:13;5.15;;;3.37;;
67979;SDS011;54760;47.490;19.030;2023-05-07T05:07:38;5.25;;;3.55;;
67979;SDS011;54760;47.490;19.030;2023-05-07T05:10:04;6.47;;;3.47;;
67979;SDS011;54760;47.490;19.030;2023-05-07T05:12:30;6.78;;;3.72;;
67979;SDS011;54760;47.490;19.030;2023-05-07T05:14:56;4.57;;;3.67;;
67979;SDS011;54760;47.490;19.030;2023-05-07T05:17:22;6.85;;;3.47;;
67979;SDS011;54760;47.490;19.030;2023-05-07T05:19:47;5.18;;;3.37;;
67979;SDS011;54760;47.490;19.030;2023-05-07T05:22:12;6.90;;;3.47;;
67979;SDS011;54760;47.490;19.030;2023-05-07T05:24:38;4.50;;;3.55;;
67979;SDS011;54760;47.490;19.030;2023-05-07T05:27:03;4.68;;;3.42;;
67979;SDS011;54760;47.490;19.030;2023-05-07T05:29:29;6.07;;;3.03;;
67979;SDS011;54760;47.490;19.030;2023-05-07T05:31:56;3.78;;;2.92;;
67979;SDS011;54760;47.490;19.030;2023-05-07T05:34:21;4.43;;;3.35;;
67979;SDS011;54760;47.490;19.030;2023-05-07T05:36:47;3.75;;;3.10;;
67979;SDS011;54760;47.490;19.030;2023-05-07T05:39:12;4.72;;;3.10;;
67979;SDS011;54760;47.490;19.030;2023-05-07T05:41:38;5.53;;;3.83;;
67979;SDS011;54760;47.490;19.030;2023-05-07T05:44:03;7.05;;;5.68;;
67979;SDS011;54760;47.490;19.030;2023-05-07T05:46:29;6.50;;;5.28;;
67979;SDS011;54760;47.490;19.030;2023-05-07T05:48:54;5.80;;;5.25;;
67979;SDS011;54760;47.490;19.030;2023-05-07T05:51:20;8.10;;;4.95;;
67979;SDS011;54760;47.490;19.030;2023-05-07T05:53:46;5.80;;;5.20;;
67979;SDS011;54760;47.490;19.030;2023-05-07T05:56:11;6.80;;;4.65;;
67979;SDS011;54760;47.490;19.030;2023-05-07T05:58:37;4.90;;;4.40;;
67979;SDS011;54760;47.490;19.030;2023-05-07T06:01:02;6.78;;;5.10;;
67979;SDS011;54760;47.490;19.030;2023-05-07T06:03:28;7.85;;;4.07;;
67979;SDS011;54760;47.490;19.030;2023-05-07T06:05:53;5.00;;;4.50;;
67979;SDS011;54760;47.490;19.030;2023-05-07T06:08:19;6.07;;;4.50;;
67979;SDS011;54760;47.490;19.030;2023-05-07T06:10:44;7.03;;;4.70;;
67979;SDS011;54760;47.490;19.030;2023-05-07T06:13:10;5.65;;;4.62;;
67979;SDS011;54760;47.490;19.030;2023-05-07T06:15:35;5.78;;;4.47;;
67979;SDS011;54760;47.490;19.030;2023-05-07T06:18:01;5.60;;;4.65;;
67979;SDS011;54760;47.490;19.030;2023-05-07T06:20:26;6.93;;;4.40;;
67979;SDS011;54760;47.490;19.030;2023-05-07T06:22:52;5.15;;;4.65;;
67979;SDS011;54760;47.490;19.030;2023-05-07T06:25:17;5.18;;;4.45;;
67979;SDS011;54760;47.490;19.030;2023-05-07T06:27:42;7.43;;;3.90;;
67979;SDS011;54760;47.490;19.030;2023-05-07T06:30:08;5.05;;;4.20;;
67979;SDS011;54760;47.490;19.030;2023-05-07T06:32:34;4.90;;;4.32;;
67979;SDS011;54760;47.490;19.030;2023-05-07T06:34:59;5.82;;;4.75;;
67979;SDS011;54760;47.490;19.030;2023-05-07T06:37:25;5.65;;;4.72;;
67979;SDS011;54760;47.490;19.030;2023-05-07T06:39:50;6.15;;;4.70;;
67979;SDS011;54760;47.490;19.030;2023-05-07T06:42:16;6.40;;;5.07;;
67979;SDS011;54760;47.490;19.030;2023-05-07T06:44:41;6.40;;;4.55;;
67979;SDS011;54760;47.490;19.030;2023-05-07T06:47:06;6.75;;;4.30;;
67979;SDS011;54760;47.490;19.030;2023-05-07T06:49:32;4.90;;;4.40;;
67979;SDS011;54760;47.490;19.030;2023-05-07T06:51:58;5.82;;;3.83;;
67979;SDS011;54760;47.490;19.030;2023-05-07T06:54:23;5.10;;;3.90;;
67979;SDS011;54760;47.490;19.030;2023-05-07T06:56:49;4.35;;;2.97;;
67979;SDS011;54760;47.490;19.030;2023-05-07T06:59:14;4.65;;;3.50;;
67979;SDS011;54760;47.490;19.030;2023-05-07T07:01:40;3.08;;;2.55;;
67979;SDS011;54760;47.490;19.030;2023-05-07T07:04:06;2.87;;;2.55;;
67979;SDS011;54760;47.490;19.030;2023-05-07T07:06:31;3.00;;;2.37;;
67979;SDS011;54760;47.490;19.030;2023-05-07T07:08:57;2.75;;;2.53;;
67979;SDS011;54760;47.490;19.030;2023-05-07T07:11:23;4.32;;;2.40;;
67979;SDS011;54760;47.490;19.030;2023-05-07T07:13:49;2.65;;;2.12;;
67979;SDS011;54760;47.490;19.030;2023-05-07T07:16:15;2.60;;;2.10;;
67979;SDS011;54760;47.490;19.030;2023-05-07T07:18:41;2.55;;;1.90;;
67979;SDS011;54760;47.490;19.030;2023-05-07T07:21:06;3.15;;;1.80;;
67979;SDS011;54760;47.490;19.030;2023-05-07T07:23:32;2.65;;;1.40;;
67979;SDS011;54760;47.490;19.030;2023-05-07T07:25:57;3.22;;;1.52;;
67979;SDS011;54760;47.490;19.030;2023-05-07T07:28:23;3.12;;;1.60;;
67979;SDS011;54760;47.490;19.030;2023-05-07T07:30:49;2.00;;;1.70;;
67979;SDS011;54760;47.490;19.030;2023-05-07T07:33:14;4.07;;;2.10;;
67979;SDS011;54760;47.490;19.030;2023-05-07T07:35:40;3.28;;;2.20;;
67979;SDS011;54760;47.490;19.030;2023-05-07T07:38:05;3.45;;;2.00;;
67979;SDS011;54760;47.490;19.030;2023-05-07T07:40:31;3.65;;;1.98;;
67979;SDS011;54760;47.490;19.030;2023-05-07T07:42:56;4.37;;;2.00;;
67979;SDS011;54760;47.490;19.030;2023-05-07T07:45:22;2.90;;;2.10;;
67979;SDS011;54760;47.490;19.030;2023-05-07T07:47:47;3.47;;;2.10;;
67979;SDS011;54760;47.490;19.030;2023-05-07T07:50:13;3.78;;;1.98;;
67979;SDS011;54760;47.490;19.030;2023-05-07T07:52:38;3.00;;;1.95;;
67979;SDS011;54760;47.490;19.030;2023-05-07T07:55:04;3.22;;;2.15;;
67979;SDS011;54760;47.490;19.030;2023-05-07T07:57:30;4.85;;;2.40;;
67979;SDS011;54760;47.490;19.030;2023-05-07T07:59:55;2.20;;;2.00;;
67979;SDS011;54760;47.490;19.030;2023-05-07T08:02:21;2.55;;;2.10;;
67979;SDS011;54760;47.490;19.030;2023-05-07T08:04:46;4.43;;;2.62;;
67979;SDS011;54760;47.490;19.030;2023-05-07T08:07:12;2.53;;;2.15;;
67979;SDS011;54760;47.490;19.030;2023-05-07T08:09:38;2.50;;;2.22;;
67979;SDS011;54760;47.490;19.030;2023-05-07T08:12:04;3.00;;;2.40;;
67979;SDS011;54760;47.490;19.030;2023-05-07T08:14:30;3.65;;;2.30;;
67979;SDS011;54760;47.490;19.030;2023-05-07T08:16:55;4.57;;;2.50;;
67979;SDS011;54760;47.490;19.030;2023-05-07T08:19:21;3.12;;;2.30;;
67979;SDS011;54760;47.490;19.030;2023-05-07T08:21:47;4.18;;;2.08;;
67979;SDS011;54760;47.490;19.030;2023-05-07T08:24:13;2.47;;;1.92;;
67979;SDS011;54760;47.490;19.030;2023-05-07T08:26:42;4.30;;;2.30;;
67979;SDS011;54760;47.490;19.030;2023-05-07T08:29:08;3.03;;;2.45;;
67979;SDS011;54760;47.490;19.030;2023-05-07T08:31:33;5.95;;;2.60;;
67979;SDS011;54760;47.490;19.030;2023-05-07T08:33:59;3.62;;;3.30;;
67979;SDS011;54760;47.490;19.030;2023-05-07T08:36:25;4.68;;;3.05;;
67979;SDS011;54760;47.490;19.030;2023-05-07T08:38:50;5.80;;;3.30;;
67979;SDS011;54760;47.490;19.030;2023-05-07T08:41:16;3.67;;;3.37;;
67979;SDS011;54760;47.490;19.030;2023-05-07T08:43:42;8.00;;;3.12;;
67979;SDS011;54760;47.490;19.030;2023-05-07T08:46:13;5.45;;;3.00;;
67979;SDS011;54760;47.490;19.030;2023-05-07T08:48:44;6.00;;;3.15;;
67979;SDS011;54760;47.490;19.030;2023-05-07T08:51:12;7.72;;;3.28;;
67979;SDS011;54760;47.490;19.030;2023-05-07T08:53:40;5.05;;;3.10;;
67979;SDS011;54760;47.490;19.030;2023-05-07T08:56:07;4.45;;;3.75;;
67979;SDS011;54760;47.490;19.030;2023-05-07T08:58:33;6.30;;;3.55;;
67979;SDS011;54760;47.490;19.030;2023-05-07T09:01:01;6.87;;;3.70;;
67979;SDS011;54760;47.490;19.030;2023-05-07T09:03:31;5.55;;;4.12;;
67979;SDS011;54760;47.490;19.030;2023-05-07T09:05:57;4.45;;;3.85;;
67979;SDS011;54760;47.490;19.030;2023-05-07T09:08:26;5.32;;;3.95;;
67979;SDS011;54760;47.490;19.030;2023-05-07T09:10:52;5.45;;;4.07;;
67979;SDS011;54760;47.490;19.030;2023-05-07T09:13:18;4.20;;;3.72;;
67979;SDS011;54760;47.490;19.030;2023-05-07T09:15:44;4.75;;;3.85;;
67979;SDS011;54760;47.490;19.030;2023-05-07T09:18:09;4.15;;;3.75;;
67979;SDS011;54760;47.490;19.030;2023-05-07T09:20:38;7.00;;;3.85;;
67979;SDS011;54760;47.490;19.030;2023-05-07T09:23:03;6.22;;;3.70;;
67979;SDS011;54760;47.490;19.030;2023-05-07T09:25:30;6.82;;;3.95;;
67979;SDS011;54760;47.490;19.030;2023-05-07T09:27:56;4.90;;;3.60;;
67979;SDS011;54760;47.490;19.030;2023-05-07T09:30:22;4.53;;;3.70;;
67979;SDS011;54760;47.490;19.030;2023-05-07T09:32:47;3.80;;;3.22;;
67979;SDS011;54760;47.490;19.030;2023-05-07T09:35:16;4.43;;;3.60;;
67979;SDS011;54760;47.490;19.030;2023-05-07T09:37:42;6.93;;;3.78;;
67979;SDS011;54760;47.490;19.030;2023-05-07T09:40:09;5.43;;;3.55;;
67979;SDS011;54760;47.490;19.030;2023-05-07T09:42:46;5.12;;;3.12;;
67979;SDS011;54760;47.490;19.030;2023-05-07T09:45:12;5.28;;;3.30;;
67979;SDS011;54760;47.490;19.030;2023-05-07T09:47:38;5.10;;;3.30;;
67979;SDS011;54760;47.490;19.030;2023-05-07T09:50:05;3.83;;;2.90;;
67979;SDS011;54760;47.490;19.030;2023-05-07T09:52:33;4.00;;;2.67;;
67979;SDS011;54760;47.490;19.030;2023-05-07T09:55:00;7.07;;;3.08;;
67979;SDS011;54760;47.490;19.030;2023-05-07T09:57:27;4.10;;;3.17;;
67979;SDS011;54760;47.490;19.030;2023-05-07T09:59:53;5.45;;;3.00;;
67979;SDS011;54760;47.490;19.030;2023-05-07T10:02:21;5.50;;;3.45;;
67979;SDS011;54760;47.490;19.030;2023-05-07T10:04:50;4.28;;;3.65;;
67979;SDS011;54760;47.490;19.030;2023-05-07T10:07:18;4.82;;;3.47;;
67979;SDS011;54760;47.490;19.030;2023-05-07T10:09:44;3.50;;;3.20;;
67979;SDS011;54760;47.490;19.030;2023-05-07T10:12:11;3.95;;;3.55;;
67979;SDS011;54760;47.490;19.030;2023-05-07T10:14:37;5.65;;;3.30;;
67979;SDS011;54760;47.490;19.030;2023-05-07T10:17:02;4.78;;;3.28;;
67979;SDS011;54760;47.490;19.030;2023-05-07T10:19:28;4.25;;;3.37;;
67979;SDS011;54760;47.490;19.030;2023-05-07T10:21:55;3.62;;;3.22;;
67979;SDS011;54760;47.490;19.030;2023-05-07T10:24:33;6.78;;;3.90;;
67979;SDS011;54760;47.490;19.030;2023-05-07T10:27:01;6.30;;;3.30;;
67979;SDS011;54760;47.490;19.030;2023-05-07T10:29:33;5.87;;;3.35;;
67979;SDS011;54760;47.490;19.030;2023-05-07T10:34:32;3.53;;;2.80;;
67979;SDS011;54760;47.490;19.030;2023-05-07T10:37:01;6.93;;;3.03;;
67979;SDS011;54760;47.490;19.030;2023-05-07T10:39:28;7.55;;;2.72;;
67979;SDS011;54760;47.490;19.030;2023-05-07T10:41:54;5.90;;;3.22;;
67979;SDS011;54760;47.490;19.030;2023-05-07T10:44:26;4.53;;;3.47;;
67979;SDS011;54760;47.490;19.030;2023-05-07T10:47:06;6.53;;;3.62;;
67979;SDS011;54760;47.490;19.030;2023-05-07T10:49:34;6.37;;;3.70;;
67979;SDS011;54760;47.490;19.030;2023-05-07T10:52:21;6.30;;;3.30;;
67979;SDS011;54760;47.490;19.030;2023-05-07T10:55:18;5.28;;;3.62;;
67979;SDS011;54760;47.490;19.030;2023-05-07T10:57:40;6.28;;;3.45;;
67979;SDS011;54760;47.490;19.030;2023-05-07T11:05:24;4.47;;;3.70;;
67979;SDS011;54760;47.490;19.030;2023-05-07T11:07:57;4.07;;;3.00;;
67979;SDS011;54760;47.490;19.030;2023-05-07T11:13:14;3.33;;;2.80;;
67979;SDS011;54760;47.490;19.030;2023-05-07T11:15:43;5.00;;;2.97;;
67979;SDS011;54760;47.490;19.030;2023-05-07T11:18:10;6.05;;;2.80;;
67979;SDS011;54760;47.490;19.030;2023-05-07T11:26:10;3.72;;;2.30;;
67979;SDS011;54760;47.490;19.030;2023-05-07T11:28:40;4.25;;;2.58;;
67979;SDS011;54760;47.490;19.030;2023-05-07T11:31:07;4.18;;;2.70;;
67979;SDS011;54760;47.490;19.030;2023-05-07T11:33:33;4.20;;;2.50;;
67979;SDS011;54760;47.490;19.030;2023-05-07T11:35:59;4.00;;;2.45;;
67979;SDS011;54760;47.490;19.030;2023-05-07T11:38:25;3.65;;;2.40;;
67979;SDS011;54760;47.490;19.030;2023-05-07T11:40:53;2.97;;;2.65;;
67979;SDS011;54760;47.490;19.030;2023-05-07T11:43:22;3.22;;;2.45;;
67979;SDS011;54760;47.490;19.030;2023-05-07T11:45:48;2.42;;;2.22;;
67979;SDS011;54760;47.490;19.030;2023-05-07T11:48:14;3.42;;;2.75;;
67979;SDS011;54760;47.490;19.030;2023-05-07T11:50:53;4.15;;;2.90;;
67979;SDS011;54760;47.490;19.030;2023-05-07T11:53:24;8.27;;;2.37;;
67979;SDS011;54760;47.490;19.030;2023-05-07T11:55:56;5.60;;;2.50;;
67979;SDS011;54760;47.490;19.030;2023-05-07T11:58:23;3.17;;;2.45;;
67979;SDS011;54760;47.490;19.030;2023-05-07T12:00:51;3.95;;;2.53;;
67979;SDS011;54760;47.490;19.030;2023-05-07T12:03:17;3.85;;;2.47;;
67979;SDS011;54760;47.490;19.030;2023-05-07T12:05:43;3.65;;;2.83;;
67979;SDS011;54760;47.490;19.030;2023-05-07T12:08:19;3.22;;;2.45;;
67979;SDS011;54760;47.490;19.030;2023-05-07T12:10:47;3.40;;;2.72;;
67979;SDS011;54760;47.490;19.030;2023-05-07T12:13:14;3.30;;;2.60;;
67979;SDS011;54760;47.490;19.030;2023-05-07T12:15:43;2.95;;;2.30;;
67979;SDS011;54760;47.490;19.030;2023-05-07T12:18:09;2.80;;;2.40;;
67979;SDS011;54760;47.490;19.030;2023-05-07T12:20:36;5.00;;;2.80;;
67979;SDS011;54760;47.490;19.030;2023-05-07T12:23:02;4.32;;;2.50;;
67979;SDS011;54760;47.490;19.030;2023-05-07T12:25:31;3.78;;;2.42;;
67979;SDS011;54760;47.490;19.030;2023-05-07T12:28:00;2.92;;;2.42;;
67979;SDS011;54760;47.490;19.030;2023-05-07T12:30:25;5.25;;;2.50;;
67979;SDS011;54760;47.490;19.030;2023-05-07T12:32:54;3.40;;;2.47;;
67979;SDS011;54760;47.490;19.030;2023-05-07T12:35:27;2.60;;;2.10;;
67979;SDS011;54760;47.490;19.030;2023-05-07T12:37:56;3.62;;;2.70;;
67979;SDS011;54760;47.490;19.030;2023-05-07T12:40:24;3.40;;;2.60;;
67979;SDS011;54760;47.490;19.030;2023-05-07T12:43:00;4.25;;;2.42;;
67979;SDS011;54760;47.490;19.030;2023-05-07T12:45:26;2.65;;;2.10;;
67979;SDS011;54760;47.490;19.030;2023-05-07T12:47:51;2.72;;;2.25;;
67979;SDS011;54760;47.490;19.030;2023-05-07T12:50:17;3.08;;;2.35;;
67979;SDS011;54760;47.490;19.030;2023-05-07T12:52:45;3.47;;;2.33;;
67979;SDS011;54760;47.490;19.030;2023-05-07T12:55:15;5.72;;;2.40;;
67979;SDS011;54760;47.490;19.030;2023-05-07T12:57:42;4.10;;;2.30;;
67979;SDS011;54760;47.490;19.030;2023-05-07T13:00:10;3.72;;;2.45;;
67979;SDS011;54760;47.490;19.030;2023-05-07T13:02:37;2.62;;;2.10;;
67979;SDS011;54760;47.490;19.030;2023-05-07T13:05:03;2.72;;;2.20;;
67979;SDS011;54760;47.490;19.030;2023-05-07T13:07:29;3.22;;;2.30;;
67979;SDS011;54760;47.490;19.030;2023-05-07T13:09:55;2.83;;;2.33;;
67979;SDS011;54760;47.490;19.030;2023-05-07T13:12:20;3.28;;;1.92;;
67979;SDS011;54760;47.490;19.030;2023-05-07T13:14:45;2.40;;;1.85;;
67979;SDS011;54760;47.490;19.030;2023-05-07T13:17:11;4.70;;;2.50;;
67979;SDS011;54760;47.490;19.030;2023-05-07T13:19:36;4.05;;;2.53;;
67979;SDS011;54760;47.490;19.030;2023-05-07T13:22:02;4.07;;;3.20;;
67979;SDS011;54760;47.490;19.030;2023-05-07T13:24:28;2.60;;;1.90;;
67979;SDS011;54760;47.490;19.030;2023-05-07T13:26:54;2.78;;;2.00;;
67979;SDS011;54760;47.490;19.030;2023-05-07T13:29:19;2.28;;;2.00;;
67979;SDS011;54760;47.490;19.030;2023-05-07T13:31:50;4.12;;;2.37;;
67979;SDS011;54760;47.490;19.030;2023-05-07T13:34:15;3.33;;;2.05;;
67979;SDS011;54760;47.490;19.030;2023-05-07T13:36:41;4.53;;;2.10;;
67979;SDS011;54760;47.490;19.030;2023-05-07T13:39:06;4.57;;;2.10;;
67979;SDS011;54760;47.490;19.030;2023-05-07T13:41:32;4.37;;;2.05;;
67979;SDS011;54760;47.490;19.030;2023-05-07T13:43:57;3.03;;;1.80;;
67979;SDS011;54760;47.490;19.030;2023-05-07T13:46:23;5.87;;;2.15;;
67979;SDS011;54760;47.490;19.030;2023-05-07T13:48:48;2.67;;;2.30;;
67979;SDS011;54760;47.490;19.030;2023-05-07T13:51:14;5.78;;;2.40;;
67979;SDS011;54760;47.490;19.030;2023-05-07T13:53:39;6.22;;;2.30;;
67979;SDS011;54760;47.490;19.030;2023-05-07T13:56:05;3.42;;;2.45;;
67979;SDS011;54760;47.490;19.030;2023-05-07T13:58:30;3.17;;;2.60;;
67979;SDS011;54760;47.490;19.030;2023-05-07T14:00:55;3.62;;;2.40;;
67979;SDS011;54760;47.490;19.030;2023-05-07T14:03:21;3.97;;;2.40;;
67979;SDS011;54760;47.490;19.030;2023-05-07T14:05:46;2.83;;;2.40;;
67979;SDS011;54760;47.490;19.030;2023-05-07T14:08:12;4.07;;;2.53;;
67979;SDS011;54760;47.490;19.030;2023-05-07T14:10:39;4.28;;;2.42;;
67979;SDS011;54760;47.490;19.030;2023-05-07T14:13:05;3.90;;;2.50;;
67979;SDS011;54760;47.490;19.030;2023-05-07T14:15:31;3.67;;;2.60;;
67979;SDS011;54760;47.490;19.030;2023-05-07T14:18:00;3.95;;;2.80;;
67979;SDS011;54760;47.490;19.030;2023-05-07T14:20:25;3.25;;;2.60;;
67979;SDS011;54760;47.490;19.030;2023-05-07T14:22:51;3.62;;;2.75;;
67979;SDS011;54760;47.490;19.030;2023-05-07T14:25:17;3.87;;;2.70;;
67979;SDS011;54760;47.490;19.030;2023-05-07T14:27:42;6.25;;;2.75;;
67979;SDS011;54760;47.490;19.030;2023-05-07T14:30:08;3.53;;;2.80;;
67979;SDS011;54760;47.490;19.030;2023-05-07T14:32:33;6.65;;;2.78;;
67979;SDS011;54760;47.490;19.030;2023-05-07T14:34:59;3.12;;;2.80;;
67979;SDS011;54760;47.490;19.030;2023-05-07T14:37:25;4.65;;;2.65;;
67979;SDS011;54760;47.490;19.030;2023-05-07T14:39:50;3.83;;;2.92;;
67979;SDS011;54760;47.490;19.030;2023-05-07T14:42:16;5.82;;;3.00;;
67979;SDS011;54760;47.490;19.030;2023-05-07T14:44:41;4.43;;;2.90;;